Terminal Aerodrome Forecast
Issued by NWS

Home | Current Version | Previous Version | Text Only | Print | Product List | Glossary On
Versions: 1 2 3 4 5 6 7 8 9 10 11 12 13 14 15
000
FTUS41 KBOX 172320
TAFBED
TAF
KBED 172320Z 1800/1824 VRB03KT P6SM FEW250
     FM181200 VRB03KT P6SM VCSH OVC040
     FM181600 17008KT 3SM -SHRA BR OVC010
     FM182000 17009KT 1SM SHRA BR OVC008=

USA.gov is the U.S. government's official web portal to all federal, state and local government web resources and services.